sensor_id;sensor_type;location;lat;lon;timestamp;P1;durP1;ratioP1;P2;durP2;ratioP2
78612;SDS011;67933;51.060;3.638;2024-01-27T00:01:43;17.35;;;9.90;;
78612;SDS011;67933;51.060;3.638;2024-01-27T00:04:08;15.68;;;9.52;;
78612;SDS011;67933;51.060;3.638;2024-01-27T00:06:34;17.50;;;9.13;;
78612;SDS011;67933;51.060;3.638;2024-01-27T00:08:59;16.33;;;9.90;;
78612;SDS011;67933;51.060;3.638;2024-01-27T00:11:25;18.80;;;9.57;;
78612;SDS011;67933;51.060;3.638;2024-01-27T00:13:50;19.98;;;10.35;;
78612;SDS011;67933;51.060;3.638;2024-01-27T00:16:16;15.80;;;10.00;;
78612;SDS011;67933;51.060;3.638;2024-01-27T00:18:41;16.95;;;9.70;;
78612;SDS011;67933;51.060;3.638;2024-01-27T00:21:07;13.55;;;9.20;;
78612;SDS011;67933;51.060;3.638;2024-01-27T00:23:32;14.80;;;9.75;;
78612;SDS011;67933;51.060;3.638;2024-01-27T00:25:59;17.08;;;10.55;;
78612;SDS011;67933;51.060;3.638;2024-01-27T00:28:25;15.05;;;9.77;;
78612;SDS011;67933;51.060;3.638;2024-01-27T00:30:50;16.63;;;9.52;;
78612;SDS011;67933;51.060;3.638;2024-01-27T00:33:15;20.92;;;9.80;;
78612;SDS011;67933;51.060;3.638;2024-01-27T00:35:41;17.10;;;9.60;;
78612;SDS011;67933;51.060;3.638;2024-01-27T00:38:06;24.52;;;9.88;;
78612;SDS011;67933;51.060;3.638;2024-01-27T00:40:32;18.60;;;8.60;;
78612;SDS011;67933;51.060;3.638;2024-01-27T00:42:57;16.50;;;9.10;;
78612;SDS011;67933;51.060;3.638;2024-01-27T00:45:23;17.92;;;9.43;;
78612;SDS011;67933;51.060;3.638;2024-01-27T00:47:49;22.23;;;9.27;;
78612;SDS011;67933;51.060;3.638;2024-01-27T00:50:15;19.05;;;9.70;;
78612;SDS011;67933;51.060;3.638;2024-01-27T00:52:41;20.48;;;9.30;;
78612;SDS011;67933;51.060;3.638;2024-01-27T00:55:07;14.25;;;9.35;;
78612;SDS011;67933;51.060;3.638;2024-01-27T00:57:33;14.60;;;9.38;;
78612;SDS011;67933;51.060;3.638;2024-01-27T00:59:58;20.23;;;9.70;;
78612;SDS011;67933;51.060;3.638;2024-01-27T01:02:23;20.58;;;10.63;;
78612;SDS011;67933;51.060;3.638;2024-01-27T01:04:49;18.58;;;10.00;;
78612;SDS011;67933;51.060;3.638;2024-01-27T01:07:14;17.88;;;10.40;;
78612;SDS011;67933;51.060;3.638;2024-01-27T01:09:40;19.48;;;10.82;;
78612;SDS011;67933;51.060;3.638;2024-01-27T01:12:05;16.85;;;10.07;;
78612;SDS011;67933;51.060;3.638;2024-01-27T01:14:31;20.75;;;10.60;;
78612;SDS011;67933;51.060;3.638;2024-01-27T01:16:56;14.93;;;9.98;;
78612;SDS011;67933;51.060;3.638;2024-01-27T01:19:22;21.33;;;10.57;;
78612;SDS011;67933;51.060;3.638;2024-01-27T01:21:47;22.73;;;9.85;;
78612;SDS011;67933;51.060;3.638;2024-01-27T01:24:12;18.17;;;10.50;;
78612;SDS011;67933;51.060;3.638;2024-01-27T01:26:38;16.42;;;9.18;;
78612;SDS011;67933;51.060;3.638;2024-01-27T01:29:03;20.05;;;10.40;;
78612;SDS011;67933;51.060;3.638;2024-01-27T01:31:29;21.30;;;10.55;;
78612;SDS011;67933;51.060;3.638;2024-01-27T01:33:54;18.65;;;10.30;;
78612;SDS011;67933;51.060;3.638;2024-01-27T01:36:19;23.13;;;9.63;;
78612;SDS011;67933;51.060;3.638;2024-01-27T01:38:45;14.52;;;9.55;;
78612;SDS011;67933;51.060;3.638;2024-01-27T01:41:11;19.83;;;10.93;;
78612;SDS011;67933;51.060;3.638;2024-01-27T01:43:36;18.95;;;10.48;;
78612;SDS011;67933;51.060;3.638;2024-01-27T01:46:02;19.48;;;10.40;;
78612;SDS011;67933;51.060;3.638;2024-01-27T01:48:27;22.23;;;10.45;;
78612;SDS011;67933;51.060;3.638;2024-01-27T01:50:54;16.40;;;9.68;;
78612;SDS011;67933;51.060;3.638;2024-01-27T01:53:19;17.23;;;9.73;;
78612;SDS011;67933;51.060;3.638;2024-01-27T01:55:45;21.83;;;10.77;;
78612;SDS011;67933;51.060;3.638;2024-01-27T01:58:11;18.75;;;10.40;;
78612;SDS011;67933;51.060;3.638;2024-01-27T02:00:37;22.42;;;10.15;;
78612;SDS011;67933;51.060;3.638;2024-01-27T02:03:02;22.27;;;10.10;;
78612;SDS011;67933;51.060;3.638;2024-01-27T02:05:28;18.20;;;10.40;;
78612;SDS011;67933;51.060;3.638;2024-01-27T02:07:53;19.80;;;10.60;;
78612;SDS011;67933;51.060;3.638;2024-01-27T02:10:21;18.55;;;10.27;;
78612;SDS011;67933;51.060;3.638;2024-01-27T02:12:46;15.80;;;9.52;;
78612;SDS011;67933;51.060;3.638;2024-01-27T02:15:12;16.67;;;10.07;;
78612;SDS011;67933;51.060;3.638;2024-01-27T02:17:39;20.70;;;9.45;;
78612;SDS011;67933;51.060;3.638;2024-01-27T02:20:08;20.98;;;10.63;;
78612;SDS011;67933;51.060;3.638;2024-01-27T02:22:34;15.70;;;8.95;;
78612;SDS011;67933;51.060;3.638;2024-01-27T02:25:00;19.00;;;9.52;;
78612;SDS011;67933;51.060;3.638;2024-01-27T02:27:25;19.60;;;9.35;;
78612;SDS011;67933;51.060;3.638;2024-01-27T02:29:51;19.40;;;9.73;;
78612;SDS011;67933;51.060;3.638;2024-01-27T02:32:16;17.55;;;9.60;;
78612;SDS011;67933;51.060;3.638;2024-01-27T02:34:41;22.25;;;9.40;;
78612;SDS011;67933;51.060;3.638;2024-01-27T02:37:07;19.48;;;9.15;;
78612;SDS011;67933;51.060;3.638;2024-01-27T02:39:32;19.33;;;10.25;;
78612;SDS011;67933;51.060;3.638;2024-01-27T02:41:57;16.88;;;9.43;;
78612;SDS011;67933;51.060;3.638;2024-01-27T02:44:23;18.05;;;9.25;;
78612;SDS011;67933;51.060;3.638;2024-01-27T02:46:48;21.17;;;10.25;;
78612;SDS011;67933;51.060;3.638;2024-01-27T02:49:14;14.75;;;9.63;;
78612;SDS011;67933;51.060;3.638;2024-01-27T02:51:39;16.73;;;10.02;;
78612;SDS011;67933;51.060;3.638;2024-01-27T02:54:04;21.17;;;10.15;;
78612;SDS011;67933;51.060;3.638;2024-01-27T02:56:30;17.88;;;9.85;;
78612;SDS011;67933;51.060;3.638;2024-01-27T02:58:55;15.63;;;9.40;;
78612;SDS011;67933;51.060;3.638;2024-01-27T03:01:21;19.65;;;10.38;;
78612;SDS011;67933;51.060;3.638;2024-01-27T03:03:46;15.95;;;9.82;;
78612;SDS011;67933;51.060;3.638;2024-01-27T03:06:12;18.13;;;9.80;;
78612;SDS011;67933;51.060;3.638;2024-01-27T03:08:37;17.85;;;10.18;;
78612;SDS011;67933;51.060;3.638;2024-01-27T03:11:02;21.30;;;9.93;;
78612;SDS011;67933;51.060;3.638;2024-01-27T03:13:28;22.73;;;10.50;;
78612;SDS011;67933;51.060;3.638;2024-01-27T03:15:53;18.48;;;10.15;;
78612;SDS011;67933;51.060;3.638;2024-01-27T03:18:19;18.33;;;10.68;;
78612;SDS011;67933;51.060;3.638;2024-01-27T03:20:44;17.05;;;10.25;;
78612;SDS011;67933;51.060;3.638;2024-01-27T03:23:10;16.00;;;10.00;;
78612;SDS011;67933;51.060;3.638;2024-01-27T03:25:35;23.17;;;11.88;;
78612;SDS011;67933;51.060;3.638;2024-01-27T03:28:00;22.15;;;11.88;;
78612;SDS011;67933;51.060;3.638;2024-01-27T03:30:27;18.95;;;11.38;;
78612;SDS011;67933;51.060;3.638;2024-01-27T03:32:52;23.23;;;11.85;;
78612;SDS011;67933;51.060;3.638;2024-01-27T03:35:17;22.90;;;10.73;;
78612;SDS011;67933;51.060;3.638;2024-01-27T03:37:43;24.10;;;11.25;;
78612;SDS011;67933;51.060;3.638;2024-01-27T03:40:09;17.35;;;11.35;;
78612;SDS011;67933;51.060;3.638;2024-01-27T03:42:35;19.98;;;11.55;;
78612;SDS011;67933;51.060;3.638;2024-01-27T03:45:01;22.90;;;11.63;;
78612;SDS011;67933;51.060;3.638;2024-01-27T03:47:26;19.00;;;11.18;;
78612;SDS011;67933;51.060;3.638;2024-01-27T03:49:51;22.88;;;11.82;;
78612;SDS011;67933;51.060;3.638;2024-01-27T03:52:17;23.40;;;12.10;;
78612;SDS011;67933;51.060;3.638;2024-01-27T03:54:42;20.15;;;12.02;;
78612;SDS011;67933;51.060;3.638;2024-01-27T03:57:07;16.92;;;9.60;;
78612;SDS011;67933;51.060;3.638;2024-01-27T03:59:33;20.63;;;10.50;;
78612;SDS011;67933;51.060;3.638;2024-01-27T04:01:58;22.65;;;11.48;;
78612;SDS011;67933;51.060;3.638;2024-01-27T04:04:24;23.27;;;11.77;;
78612;SDS011;67933;51.060;3.638;2024-01-27T04:06:50;25.45;;;11.88;;
78612;SDS011;67933;51.060;3.638;2024-01-27T04:09:15;19.65;;;11.07;;
78612;SDS011;67933;51.060;3.638;2024-01-27T04:11:41;23.88;;;11.93;;
78612;SDS011;67933;51.060;3.638;2024-01-27T04:14:06;23.90;;;11.90;;
78612;SDS011;67933;51.060;3.638;2024-01-27T04:16:32;19.17;;;10.90;;
78612;SDS011;67933;51.060;3.638;2024-01-27T04:18:57;23.58;;;10.73;;
78612;SDS011;67933;51.060;3.638;2024-01-27T04:21:23;18.25;;;10.80;;
78612;SDS011;67933;51.060;3.638;2024-01-27T04:23:48;21.27;;;11.25;;
78612;SDS011;67933;51.060;3.638;2024-01-27T04:26:14;19.33;;;10.68;;
78612;SDS011;67933;51.060;3.638;2024-01-27T04:28:39;16.58;;;10.85;;
78612;SDS011;67933;51.060;3.638;2024-01-27T04:31:05;20.20;;;11.63;;
78612;SDS011;67933;51.060;3.638;2024-01-27T04:33:31;20.27;;;11.48;;
78612;SDS011;67933;51.060;3.638;2024-01-27T04:35:56;22.00;;;11.80;;
78612;SDS011;67933;51.060;3.638;2024-01-27T04:38:22;22.30;;;11.25;;
78612;SDS011;67933;51.060;3.638;2024-01-27T04:40:48;22.27;;;11.68;;
78612;SDS011;67933;51.060;3.638;2024-01-27T04:43:14;18.67;;;11.68;;
78612;SDS011;67933;51.060;3.638;2024-01-27T04:45:41;21.80;;;12.00;;
78612;SDS011;67933;51.060;3.638;2024-01-27T04:48:06;24.42;;;11.68;;
78612;SDS011;67933;51.060;3.638;2024-01-27T04:50:32;22.63;;;12.75;;
78612;SDS011;67933;51.060;3.638;2024-01-27T04:52:57;18.10;;;12.70;;
78612;SDS011;67933;51.060;3.638;2024-01-27T04:55:23;22.10;;;11.88;;
78612;SDS011;67933;51.060;3.638;2024-01-27T04:57:48;21.38;;;11.95;;
78612;SDS011;67933;51.060;3.638;2024-01-27T05:00:14;15.85;;;11.05;;
78612;SDS011;67933;51.060;3.638;2024-01-27T05:02:40;24.15;;;12.93;;
78612;SDS011;67933;51.060;3.638;2024-01-27T05:05:08;22.27;;;12.93;;
78612;SDS011;67933;51.060;3.638;2024-01-27T05:07:33;20.88;;;12.75;;
78612;SDS011;67933;51.060;3.638;2024-01-27T05:09:59;20.60;;;11.65;;
78612;SDS011;67933;51.060;3.638;2024-01-27T05:12:25;19.42;;;11.55;;
78612;SDS011;67933;51.060;3.638;2024-01-27T05:14:50;17.27;;;11.25;;
78612;SDS011;67933;51.060;3.638;2024-01-27T05:17:16;28.17;;;12.25;;
78612;SDS011;67933;51.060;3.638;2024-01-27T05:19:41;22.90;;;11.52;;
78612;SDS011;67933;51.060;3.638;2024-01-27T05:22:07;17.85;;;11.00;;
78612;SDS011;67933;51.060;3.638;2024-01-27T05:24:32;27.60;;;12.40;;
78612;SDS011;67933;51.060;3.638;2024-01-27T05:26:58;25.55;;;11.73;;
78612;SDS011;67933;51.060;3.638;2024-01-27T05:29:25;21.60;;;11.57;;
78612;SDS011;67933;51.060;3.638;2024-01-27T05:31:52;20.63;;;12.43;;
78612;SDS011;67933;51.060;3.638;2024-01-27T05:34:17;23.98;;;11.65;;
78612;SDS011;67933;51.060;3.638;2024-01-27T05:36:43;20.38;;;12.15;;
78612;SDS011;67933;51.060;3.638;2024-01-27T05:39:08;23.08;;;12.98;;
78612;SDS011;67933;51.060;3.638;2024-01-27T05:41:34;23.85;;;11.82;;
78612;SDS011;67933;51.060;3.638;2024-01-27T05:43:59;25.25;;;13.05;;
78612;SDS011;67933;51.060;3.638;2024-01-27T05:46:25;25.55;;;13.13;;
78612;SDS011;67933;51.060;3.638;2024-01-27T05:48:50;26.08;;;13.20;;
78612;SDS011;67933;51.060;3.638;2024-01-27T05:51:18;23.67;;;12.65;;
78612;SDS011;67933;51.060;3.638;2024-01-27T05:53:44;20.77;;;11.88;;
78612;SDS011;67933;51.060;3.638;2024-01-27T05:56:09;27.60;;;13.10;;
78612;SDS011;67933;51.060;3.638;2024-01-27T05:58:35;25.67;;;11.75;;
78612;SDS011;67933;51.060;3.638;2024-01-27T06:01:00;16.90;;;11.77;;
78612;SDS011;67933;51.060;3.638;2024-01-27T06:03:25;17.35;;;11.55;;
78612;SDS011;67933;51.060;3.638;2024-01-27T06:05:51;18.83;;;12.52;;
78612;SDS011;67933;51.060;3.638;2024-01-27T06:08:16;18.92;;;11.88;;
78612;SDS011;67933;51.060;3.638;2024-01-27T06:10:43;25.30;;;11.65;;
78612;SDS011;67933;51.060;3.638;2024-01-27T06:13:08;26.92;;;11.50;;
78612;SDS011;67933;51.060;3.638;2024-01-27T06:15:34;24.20;;;12.02;;
78612;SDS011;67933;51.060;3.638;2024-01-27T06:17:59;22.52;;;10.85;;
78612;SDS011;67933;51.060;3.638;2024-01-27T06:20:24;23.90;;;12.07;;
78612;SDS011;67933;51.060;3.638;2024-01-27T06:22:50;20.63;;;11.38;;
78612;SDS011;67933;51.060;3.638;2024-01-27T06:25:17;20.05;;;10.98;;
78612;SDS011;67933;51.060;3.638;2024-01-27T06:27:42;20.50;;;11.73;;
78612;SDS011;67933;51.060;3.638;2024-01-27T06:30:09;18.98;;;11.20;;
78612;SDS011;67933;51.060;3.638;2024-01-27T06:32:35;16.80;;;11.00;;
78612;SDS011;67933;51.060;3.638;2024-01-27T06:35:01;25.80;;;11.63;;
78612;SDS011;67933;51.060;3.638;2024-01-27T06:37:26;23.30;;;13.05;;
78612;SDS011;67933;51.060;3.638;2024-01-27T06:39:52;21.42;;;12.27;;
78612;SDS011;67933;51.060;3.638;2024-01-27T06:42:17;23.60;;;12.43;;
78612;SDS011;67933;51.060;3.638;2024-01-27T06:44:42;20.02;;;11.75;;
78612;SDS011;67933;51.060;3.638;2024-01-27T06:47:08;21.58;;;12.10;;
78612;SDS011;67933;51.060;3.638;2024-01-27T06:49:33;31.25;;;12.63;;
78612;SDS011;67933;51.060;3.638;2024-01-27T06:51:59;26.23;;;12.32;;
78612;SDS011;67933;51.060;3.638;2024-01-27T06:54:25;17.55;;;11.43;;
78612;SDS011;67933;51.060;3.638;2024-01-27T06:56:51;20.70;;;12.13;;
78612;SDS011;67933;51.060;3.638;2024-01-27T06:59:16;17.38;;;11.65;;
78612;SDS011;67933;51.060;3.638;2024-01-27T07:01:48;29.30;;;12.93;;
78612;SDS011;67933;51.060;3.638;2024-01-27T07:04:14;25.10;;;13.48;;
78612;SDS011;67933;51.060;3.638;2024-01-27T07:06:39;27.30;;;12.30;;
78612;SDS011;67933;51.060;3.638;2024-01-27T07:09:05;22.27;;;12.02;;
78612;SDS011;67933;51.060;3.638;2024-01-27T07:11:31;19.35;;;11.85;;
78612;SDS011;67933;51.060;3.638;2024-01-27T07:13:57;31.10;;;17.42;;
78612;SDS011;67933;51.060;3.638;2024-01-27T07:16:23;26.77;;;14.18;;
78612;SDS011;67933;51.060;3.638;2024-01-27T07:18:49;25.60;;;14.48;;
78612;SDS011;67933;51.060;3.638;2024-01-27T07:21:15;28.58;;;15.80;;
78612;SDS011;67933;51.060;3.638;2024-01-27T07:23:44;28.08;;;14.88;;
78612;SDS011;67933;51.060;3.638;2024-01-27T07:26:10;20.83;;;12.45;;
78612;SDS011;67933;51.060;3.638;2024-01-27T07:28:36;17.42;;;11.02;;
78612;SDS011;67933;51.060;3.638;2024-01-27T07:31:01;26.02;;;13.35;;
78612;SDS011;67933;51.060;3.638;2024-01-27T07:33:27;23.65;;;12.93;;
78612;SDS011;67933;51.060;3.638;2024-01-27T07:35:52;23.67;;;13.18;;
78612;SDS011;67933;51.060;3.638;2024-01-27T07:38:18;25.92;;;12.75;;
78612;SDS011;67933;51.060;3.638;2024-01-27T07:40:43;23.58;;;13.45;;
78612;SDS011;67933;51.060;3.638;2024-01-27T07:43:09;25.98;;;13.75;;
78612;SDS011;67933;51.060;3.638;2024-01-27T07:45:34;26.83;;;13.85;;
78612;SDS011;67933;51.060;3.638;2024-01-27T07:47:59;21.45;;;12.35;;
78612;SDS011;67933;51.060;3.638;2024-01-27T07:50:25;25.98;;;12.70;;
78612;SDS011;67933;51.060;3.638;2024-01-27T07:52:51;27.25;;;12.80;;
78612;SDS011;67933;51.060;3.638;2024-01-27T07:55:16;21.55;;;12.23;;
78612;SDS011;67933;51.060;3.638;2024-01-27T07:57:42;22.90;;;12.77;;
78612;SDS011;67933;51.060;3.638;2024-01-27T08:00:08;21.98;;;12.07;;
78612;SDS011;67933;51.060;3.638;2024-01-27T08:02:33;21.98;;;11.13;;
78612;SDS011;67933;51.060;3.638;2024-01-27T08:04:59;22.50;;;11.23;;
78612;SDS011;67933;51.060;3.638;2024-01-27T08:07:24;22.60;;;11.60;;
78612;SDS011;67933;51.060;3.638;2024-01-27T08:09:50;20.55;;;12.00;;
78612;SDS011;67933;51.060;3.638;2024-01-27T08:12:15;26.65;;;12.60;;
78612;SDS011;67933;51.060;3.638;2024-01-27T08:14:41;21.15;;;12.55;;
78612;SDS011;67933;51.060;3.638;2024-01-27T08:17:06;22.80;;;12.13;;
78612;SDS011;67933;51.060;3.638;2024-01-27T08:19:32;25.13;;;11.57;;
78612;SDS011;67933;51.060;3.638;2024-01-27T08:21:57;24.15;;;12.40;;
78612;SDS011;67933;51.060;3.638;2024-01-27T08:24:23;23.65;;;11.40;;
78612;SDS011;67933;51.060;3.638;2024-01-27T08:26:49;19.05;;;11.40;;
78612;SDS011;67933;51.060;3.638;2024-01-27T08:29:15;20.15;;;12.07;;
78612;SDS011;67933;51.060;3.638;2024-01-27T08:31:41;20.33;;;11.18;;
78612;SDS011;67933;51.060;3.638;2024-01-27T08:34:07;20.73;;;10.70;;
78612;SDS011;67933;51.060;3.638;2024-01-27T08:36:32;16.38;;;8.70;;
78612;SDS011;67933;51.060;3.638;2024-01-27T08:38:59;13.38;;;9.38;;
78612;SDS011;67933;51.060;3.638;2024-01-27T08:41:25;16.67;;;8.88;;
78612;SDS011;67933;51.060;3.638;2024-01-27T08:43:50;14.75;;;8.60;;
78612;SDS011;67933;51.060;3.638;2024-01-27T08:46:16;14.93;;;9.45;;
78612;SDS011;67933;51.060;3.638;2024-01-27T08:48:44;17.55;;;8.50;;
78612;SDS011;67933;51.060;3.638;2024-01-27T08:51:10;11.15;;;7.03;;
78612;SDS011;67933;51.060;3.638;2024-01-27T08:53:37;11.00;;;6.88;;
78612;SDS011;67933;51.060;3.638;2024-01-27T08:56:03;11.07;;;6.93;;
78612;SDS011;67933;51.060;3.638;2024-01-27T08:58:29;14.98;;;7.03;;
78612;SDS011;67933;51.060;3.638;2024-01-27T09:00:55;16.90;;;6.65;;
78612;SDS011;67933;51.060;3.638;2024-01-27T09:03:20;18.70;;;6.70;;
78612;SDS011;67933;51.060;3.638;2024-01-27T09:05:46;8.63;;;6.18;;
78612;SDS011;67933;51.060;3.638;2024-01-27T09:08:12;14.43;;;6.47;;
78612;SDS011;67933;51.060;3.638;2024-01-27T09:10:37;12.57;;;6.07;;
78612;SDS011;67933;51.060;3.638;2024-01-27T09:13:03;14.90;;;6.05;;
78612;SDS011;67933;51.060;3.638;2024-01-27T09:15:29;16.15;;;6.18;;
78612;SDS011;67933;51.060;3.638;2024-01-27T09:17:55;18.80;;;6.55;;
78612;SDS011;67933;51.060;3.638;2024-01-27T09:20:21;12.77;;;5.82;;
78612;SDS011;67933;51.060;3.638;2024-01-27T09:22:47;12.50;;;5.72;;
78612;SDS011;67933;51.060;3.638;2024-01-27T09:25:14;13.20;;;5.40;;
78612;SDS011;67933;51.060;3.638;2024-01-27T09:27:40;12.90;;;6.18;;
78612;SDS011;67933;51.060;3.638;2024-01-27T09:30:06;12.15;;;5.50;;
78612;SDS011;67933;51.060;3.638;2024-01-27T09:32:32;13.75;;;5.90;;
78612;SDS011;67933;51.060;3.638;2024-01-27T09:34:58;13.82;;;5.07;;
78612;SDS011;67933;51.060;3.638;2024-01-27T09:37:23;11.25;;;5.15;;
78612;SDS011;67933;51.060;3.638;2024-01-27T09:39:49;12.52;;;5.88;;
78612;SDS011;67933;51.060;3.638;2024-01-27T09:42:14;13.88;;;4.90;;
78612;SDS011;67933;51.060;3.638;2024-01-27T09:44:43;13.52;;;5.72;;
78612;SDS011;67933;51.060;3.638;2024-01-27T09:47:12;13.90;;;4.88;;
78612;SDS011;67933;51.060;3.638;2024-01-27T09:49:39;7.10;;;5.40;;
78612;SDS011;67933;51.060;3.638;2024-01-27T09:52:06;14.68;;;5.55;;
78612;SDS011;67933;51.060;3.638;2024-01-27T09:54:31;16.73;;;5.97;;
78612;SDS011;67933;51.060;3.638;2024-01-27T09:56:57;9.57;;;5.15;;
78612;SDS011;67933;51.060;3.638;2024-01-27T09:59:23;15.07;;;5.95;;
78612;SDS011;67933;51.060;3.638;2024-01-27T10:01:50;11.20;;;6.25;;
78612;SDS011;67933;51.060;3.638;2024-01-27T10:04:18;12.70;;;5.70;;
78612;SDS011;67933;51.060;3.638;2024-01-27T10:06:46;14.80;;;5.50;;
78612;SDS011;67933;51.060;3.638;2024-01-27T10:09:13;13.48;;;6.20;;
78612;SDS011;67933;51.060;3.638;2024-01-27T10:11:39;12.68;;;5.85;;
78612;SDS011;67933;51.060;3.638;2024-01-27T10:14:08;12.70;;;5.07;;
78612;SDS011;67933;51.060;3.638;2024-01-27T10:16:43;15.98;;;4.90;;
78612;SDS011;67933;51.060;3.638;2024-01-27T10:19:18;12.30;;;5.15;;
78612;SDS011;67933;51.060;3.638;2024-01-27T10:21:44;14.00;;;5.03;;
78612;SDS011;67933;51.060;3.638;2024-01-27T10:24:10;13.18;;;4.75;;
78612;SDS011;67933;51.060;3.638;2024-01-27T10:26:35;8.85;;;4.13;;
78612;SDS011;67933;51.060;3.638;2024-01-27T10:29:01;10.32;;;4.38;;
78612;SDS011;67933;51.060;3.638;2024-01-27T10:31:27;10.45;;;4.68;;
78612;SDS011;67933;51.060;3.638;2024-01-27T10:33:54;11.73;;;5.15;;
78612;SDS011;67933;51.060;3.638;2024-01-27T10:36:21;15.65;;;5.55;;
78612;SDS011;67933;51.060;3.638;2024-01-27T10:38:46;10.30;;;3.97;;
78612;SDS011;67933;51.060;3.638;2024-01-27T10:41:12;12.10;;;4.45;;
78612;SDS011;67933;51.060;3.638;2024-01-27T10:43:48;8.82;;;4.32;;
78612;SDS011;67933;51.060;3.638;2024-01-27T10:46:20;11.40;;;4.57;;
78612;SDS011;67933;51.060;3.638;2024-01-27T10:48:52;10.05;;;4.32;;
78612;SDS011;67933;51.060;3.638;2024-01-27T10:51:22;15.25;;;4.10;;
78612;SDS011;67933;51.060;3.638;2024-01-27T10:53:54;9.68;;;3.70;;
78612;SDS011;67933;51.060;3.638;2024-01-27T10:56:26;10.63;;;3.63;;
78612;SDS011;67933;51.060;3.638;2024-01-27T10:58:52;9.88;;;3.80;;
78612;SDS011;67933;51.060;3.638;2024-01-27T11:01:18;8.77;;;3.80;;
78612;SDS011;67933;51.060;3.638;2024-01-27T11:03:47;10.38;;;3.50;;
78612;SDS011;67933;51.060;3.638;2024-01-27T11:06:13;11.15;;;3.35;;
78612;SDS011;67933;51.060;3.638;2024-01-27T11:08:40;10.32;;;3.15;;
78612;SDS011;67933;51.060;3.638;2024-01-27T11:11:06;12.05;;;2.72;;
78612;SDS011;67933;51.060;3.638;2024-01-27T11:13:33;7.88;;;2.60;;
78612;SDS011;67933;51.060;3.638;2024-01-27T11:15:59;7.05;;;2.92;;
78612;SDS011;67933;51.060;3.638;2024-01-27T11:18:26;11.57;;;3.42;;
78612;SDS011;67933;51.060;3.638;2024-01-27T11:20:52;7.10;;;3.05;;
78612;SDS011;67933;51.060;3.638;2024-01-27T11:23:18;15.15;;;3.95;;
78612;SDS011;67933;51.060;3.638;2024-01-27T11:25:44;10.05;;;3.33;;
78612;SDS011;67933;51.060;3.638;2024-01-27T11:28:14;7.78;;;3.10;;
78612;SDS011;67933;51.060;3.638;2024-01-27T11:30:45;10.73;;;2.92;;
78612;SDS011;67933;51.060;3.638;2024-01-27T11:33:12;10.93;;;3.00;;
78612;SDS011;67933;51.060;3.638;2024-01-27T11:35:37;9.80;;;3.35;;
78612;SDS011;67933;51.060;3.638;2024-01-27T11:38:03;13.68;;;3.88;;
78612;SDS011;67933;51.060;3.638;2024-01-27T11:40:28;10.65;;;3.00;;
78612;SDS011;67933;51.060;3.638;2024-01-27T11:43:03;8.35;;;3.17;;
78612;SDS011;67933;51.060;3.638;2024-01-27T11:45:29;8.50;;;2.97;;
78612;SDS011;67933;51.060;3.638;2024-01-27T11:47:55;10.05;;;3.13;;
78612;SDS011;67933;51.060;3.638;2024-01-27T11:50:21;9.75;;;3.67;;
78612;SDS011;67933;51.060;3.638;2024-01-27T11:52:48;12.38;;;4.05;;
78612;SDS011;67933;51.060;3.638;2024-01-27T11:55:13;10.40;;;2.95;;
78612;SDS011;67933;51.060;3.638;2024-01-27T11:57:44;9.55;;;3.13;;
78612;SDS011;67933;51.060;3.638;2024-01-27T12:00:09;8.23;;;2.90;;
78612;SDS011;67933;51.060;3.638;2024-01-27T12:02:38;6.65;;;3.05;;
78612;SDS011;67933;51.060;3.638;2024-01-27T12:05:08;13.52;;;3.30;;
78612;SDS011;67933;51.060;3.638;2024-01-27T12:07:33;7.63;;;2.70;;
78612;SDS011;67933;51.060;3.638;2024-01-27T12:09:59;13.18;;;3.50;;
78612;SDS011;67933;51.060;3.638;2024-01-27T12:12:24;11.32;;;3.95;;
78612;SDS011;67933;51.060;3.638;2024-01-27T12:14:50;10.30;;;3.35;;
78612;SDS011;67933;51.060;3.638;2024-01-27T12:17:19;9.93;;;3.05;;
78612;SDS011;67933;51.060;3.638;2024-01-27T12:19:49;10.45;;;2.90;;
78612;SDS011;67933;51.060;3.638;2024-01-27T12:22:29;9.77;;;3.10;;
78612;SDS011;67933;51.060;3.638;2024-01-27T12:24:55;10.40;;;3.00;;
78612;SDS011;67933;51.060;3.638;2024-01-27T12:27:32;13.18;;;3.28;;
78612;SDS011;67933;51.060;3.638;2024-01-27T12:29:59;13.95;;;3.22;;
78612;SDS011;67933;51.060;3.638;2024-01-27T12:32:25;7.85;;;2.78;;
78612;SDS011;67933;51.060;3.638;2024-01-27T12:34:51;6.90;;;2.72;;
78612;SDS011;67933;51.060;3.638;2024-01-27T12:37:17;9.63;;;2.53;;
78612;SDS011;67933;51.060;3.638;2024-01-27T12:39:43;11.13;;;2.83;;
78612;SDS011;67933;51.060;3.638;2024-01-27T12:42:12;11.30;;;3.40;;
78612;SDS011;67933;51.060;3.638;2024-01-27T12:44:38;15.85;;;2.78;;
78612;SDS011;67933;51.060;3.638;2024-01-27T12:47:05;7.53;;;2.95;;
78612;SDS011;67933;51.060;3.638;2024-01-27T12:49:30;13.73;;;3.20;;
78612;SDS011;67933;51.060;3.638;2024-01-27T12:51:56;12.18;;;3.10;;
78612;SDS011;67933;51.060;3.638;2024-01-27T12:54:21;13.23;;;3.17;;
78612;SDS011;67933;51.060;3.638;2024-01-27T12:56:47;11.05;;;3.15;;
78612;SDS011;67933;51.060;3.638;2024-01-27T12:59:12;7.35;;;3.00;;
78612;SDS011;67933;51.060;3.638;2024-01-27T13:01:39;7.63;;;2.42;;
78612;SDS011;67933;51.060;3.638;2024-01-27T13:04:05;8.73;;;2.85;;
78612;SDS011;67933;51.060;3.638;2024-01-27T13:06:30;7.70;;;2.40;;
78612;SDS011;67933;51.060;3.638;2024-01-27T13:08:56;10.55;;;3.08;;
78612;SDS011;67933;51.060;3.638;2024-01-27T13:11:21;11.95;;;4.25;;
78612;SDS011;67933;51.060;3.638;2024-01-27T13:13:46;8.27;;;3.00;;
78612;SDS011;67933;51.060;3.638;2024-01-27T13:16:12;11.70;;;3.53;;
78612;SDS011;67933;51.060;3.638;2024-01-27T13:18:37;10.25;;;3.30;;
78612;SDS011;67933;51.060;3.638;2024-01-27T13:21:03;7.75;;;2.85;;
78612;SDS011;67933;51.060;3.638;2024-01-27T13:23:30;9.15;;;3.83;;
78612;SDS011;67933;51.060;3.638;2024-01-27T13:25:56;12.27;;;3.30;;
78612;SDS011;67933;51.060;3.638;2024-01-27T13:28:21;8.50;;;2.92;;
78612;SDS011;67933;51.060;3.638;2024-01-27T13:30:47;8.93;;;2.95;;
78612;SDS011;67933;51.060;3.638;2024-01-27T13:33:14;9.57;;;3.17;;
78612;SDS011;67933;51.060;3.638;2024-01-27T13:35:40;7.90;;;3.33;;
78612;SDS011;67933;51.060;3.638;2024-01-27T13:38:11;8.85;;;3.30;;
78612;SDS011;67933;51.060;3.638;2024-01-27T13:40:37;11.00;;;3.15;;
78612;SDS011;67933;51.060;3.638;2024-01-27T13:43:03;10.40;;;2.90;;
78612;SDS011;67933;51.060;3.638;2024-01-27T13:45:28;8.20;;;3.28;;
78612;SDS011;67933;51.060;3.638;2024-01-27T13:47:54;13.48;;;3.53;;
78612;SDS011;67933;51.060;3.638;2024-01-27T13:50:20;9.80;;;3.72;;
78612;SDS011;67933;51.060;3.638;2024-01-27T13:52:45;11.68;;;3.20;;
78612;SDS011;67933;51.060;3.638;2024-01-27T13:55:12;12.32;;;3.90;;
78612;SDS011;67933;51.060;3.638;2024-01-27T13:57:38;10.02;;;3.17;;
78612;SDS011;67933;51.060;3.638;2024-01-27T14:00:05;9.95;;;3.75;;
78612;SDS011;67933;51.060;3.638;2024-01-27T14:02:31;8.95;;;3.17;;
78612;SDS011;67933;51.060;3.638;2024-01-27T14:05:00;11.68;;;3.05;;
78612;SDS011;67933;51.060;3.638;2024-01-27T14:07:25;11.13;;;3.40;;
78612;SDS011;67933;51.060;3.638;2024-01-27T14:09:50;7.40;;;3.13;;
78612;SDS011;67933;51.060;3.638;2024-01-27T14:12:16;9.80;;;3.35;;
78612;SDS011;67933;51.060;3.638;2024-01-27T14:14:41;9.15;;;3.25;;
78612;SDS011;67933;51.060;3.638;2024-01-27T14:17:07;7.53;;;2.80;;
78612;SDS011;67933;51.060;3.638;2024-01-27T14:19:33;8.30;;;3.20;;
78612;SDS011;67933;51.060;3.638;2024-01-27T14:21:58;9.13;;;3.30;;
78612;SDS011;67933;51.060;3.638;2024-01-27T14:24:24;10.70;;;2.83;;